sensor_id;sensor_type;location;lat;lon;timestamp;temperature;humidity
59847;DHT22;45728;48.788;2.302;2024-02-23T00:00:58;6.00;99.90
59847;DHT22;45728;48.788;2.302;2024-02-23T00:03:24;5.90;99.90
59847;DHT22;45728;48.788;2.302;2024-02-23T00:05:50;5.90;99.90
59847;DHT22;45728;48.788;2.302;2024-02-23T00:08:17;5.90;99.90
59847;DHT22;45728;48.788;2.302;2024-02-23T00:10:45;5.90;99.90
59847;DHT22;45728;48.788;2.302;2024-02-23T00:13:11;5.90;99.90
59847;DHT22;45728;48.788;2.302;2024-02-23T00:15:37;5.90;99.90
59847;DHT22;45728;48.788;2.302;2024-02-23T00:18:04;5.80;99.90
59847;DHT22;45728;48.788;2.302;2024-02-23T00:20:30;5.80;99.90
59847;DHT22;45728;48.788;2.302;2024-02-23T00:22:56;5.80;99.90
59847;DHT22;45728;48.788;2.302;2024-02-23T00:25:22;5.70;99.90
59847;DHT22;45728;48.788;2.302;2024-02-23T00:27:49;5.70;99.90
59847;DHT22;45728;48.788;2.302;2024-02-23T00:30:15;5.70;99.90
59847;DHT22;45728;48.788;2.302;2024-02-23T00:32:41;5.70;99.90
59847;DHT22;45728;48.788;2.302;2024-02-23T00:35:07;5.70;99.90
59847;DHT22;45728;48.788;2.302;2024-02-23T00:37:33;5.60;99.90
59847;DHT22;45728;48.788;2.302;2024-02-23T00:40:05;5.60;99.90
59847;DHT22;45728;48.788;2.302;2024-02-23T00:42:31;5.60;99.90
59847;DHT22;45728;48.788;2.302;2024-02-23T00:44:57;5.70;99.90
59847;DHT22;45728;48.788;2.302;2024-02-23T00:47:23;5.60;99.90
59847;DHT22;45728;48.788;2.302;2024-02-23T00:49:49;5.60;99.90
59847;DHT22;45728;48.788;2.302;2024-02-23T00:52:16;5.70;99.90
59847;DHT22;45728;48.788;2.302;2024-02-23T00:54:42;5.70;99.90
59847;DHT22;45728;48.788;2.302;2024-02-23T00:57:08;5.60;99.90
59847;DHT22;45728;48.788;2.302;2024-02-23T00:59:34;5.70;99.90
59847;DHT22;45728;48.788;2.302;2024-02-23T01:02:00;5.70;99.90
59847;DHT22;45728;48.788;2.302;2024-02-23T01:04:26;5.70;99.90
59847;DHT22;45728;48.788;2.302;2024-02-23T01:06:52;5.70;99.90
59847;DHT22;45728;48.788;2.302;2024-02-23T01:09:18;5.60;99.90
59847;DHT22;45728;48.788;2.302;2024-02-23T01:11:49;5.70;99.90
59847;DHT22;45728;48.788;2.302;2024-02-23T01:14:15;5.60;99.90
59847;DHT22;45728;48.788;2.302;2024-02-23T01:16:41;5.70;99.90
59847;DHT22;45728;48.788;2.302;2024-02-23T01:19:07;5.60;99.90
59847;DHT22;45728;48.788;2.302;2024-02-23T01:21:34;5.70;99.90
59847;DHT22;45728;48.788;2.302;2024-02-23T01:24:01;5.60;99.90
59847;DHT22;45728;48.788;2.302;2024-02-23T01:26:27;5.60;99.90
59847;DHT22;45728;48.788;2.302;2024-02-23T01:28:53;5.60;99.90
59847;DHT22;45728;48.788;2.302;2024-02-23T01:31:19;5.60;99.90
59847;DHT22;45728;48.788;2.302;2024-02-23T01:33:45;5.60;99.90
59847;DHT22;45728;48.788;2.302;2024-02-23T01:36:13;5.60;99.90
59847;DHT22;45728;48.788;2.302;2024-02-23T01:38:39;5.60;99.90
59847;DHT22;45728;48.788;2.302;2024-02-23T01:41:05;5.60;99.90
59847;DHT22;45728;48.788;2.302;2024-02-23T01:43:32;5.60;99.90
59847;DHT22;45728;48.788;2.302;2024-02-23T01:45:58;5.60;99.90
59847;DHT22;45728;48.788;2.302;2024-02-23T01:48:25;5.70;99.90
59847;DHT22;45728;48.788;2.302;2024-02-23T01:50:51;5.60;99.90
59847;DHT22;45728;48.788;2.302;2024-02-23T01:53:18;5.60;99.90
59847;DHT22;45728;48.788;2.302;2024-02-23T01:55:46;5.50;99.90
59847;DHT22;45728;48.788;2.302;2024-02-23T01:58:13;5.60;99.90
59847;DHT22;45728;48.788;2.302;2024-02-23T02:00:39;5.50;99.90
59847;DHT22;45728;48.788;2.302;2024-02-23T02:03:05;5.50;99.90
59847;DHT22;45728;48.788;2.302;2024-02-23T02:05:32;5.50;99.90
59847;DHT22;45728;48.788;2.302;2024-02-23T02:07:58;5.60;99.90
59847;DHT22;45728;48.788;2.302;2024-02-23T02:10:27;5.50;99.90
59847;DHT22;45728;48.788;2.302;2024-02-23T02:12:53;5.40;99.90
59847;DHT22;45728;48.788;2.302;2024-02-23T02:15:19;5.50;99.90
59847;DHT22;45728;48.788;2.302;2024-02-23T02:17:48;5.50;99.90
59847;DHT22;45728;48.788;2.302;2024-02-23T02:20:14;5.50;99.90
59847;DHT22;45728;48.788;2.302;2024-02-23T02:22:40;5.50;99.90
59847;DHT22;45728;48.788;2.302;2024-02-23T02:25:06;5.40;99.90
59847;DHT22;45728;48.788;2.302;2024-02-23T02:27:32;5.50;99.90
59847;DHT22;45728;48.788;2.302;2024-02-23T02:29:59;5.50;99.90
59847;DHT22;45728;48.788;2.302;2024-02-23T02:32:43;5.60;99.90
59847;DHT22;45728;48.788;2.302;2024-02-23T02:35:11;5.60;99.90
59847;DHT22;45728;48.788;2.302;2024-02-23T02:37:38;5.70;99.90
59847;DHT22;45728;48.788;2.302;2024-02-23T02:40:05;5.70;99.90
59847;DHT22;45728;48.788;2.302;2024-02-23T02:42:33;5.70;99.90
59847;DHT22;45728;48.788;2.302;2024-02-23T02:44:59;5.70;99.90
59847;DHT22;45728;48.788;2.302;2024-02-23T02:47:25;5.70;99.90
59847;DHT22;45728;48.788;2.302;2024-02-23T02:49:51;5.70;99.90
59847;DHT22;45728;48.788;2.302;2024-02-23T02:52:17;5.80;99.90
59847;DHT22;45728;48.788;2.302;2024-02-23T02:54:43;5.70;99.90
59847;DHT22;45728;48.788;2.302;2024-02-23T02:57:09;5.70;99.90
59847;DHT22;45728;48.788;2.302;2024-02-23T02:59:35;5.60;99.90
59847;DHT22;45728;48.788;2.302;2024-02-23T03:02:02;5.60;99.90
59847;DHT22;45728;48.788;2.302;2024-02-23T03:04:28;5.60;99.90
59847;DHT22;45728;48.788;2.302;2024-02-23T03:06:54;5.60;99.90
59847;DHT22;45728;48.788;2.302;2024-02-23T03:09:20;5.60;99.90
59847;DHT22;45728;48.788;2.302;2024-02-23T03:11:46;5.50;99.90
59847;DHT22;45728;48.788;2.302;2024-02-23T03:14:12;5.50;99.90
59847;DHT22;45728;48.788;2.302;2024-02-23T03:16:38;5.40;99.90
59847;DHT22;45728;48.788;2.302;2024-02-23T03:19:04;5.40;99.90
59847;DHT22;45728;48.788;2.302;2024-02-23T03:21:30;5.40;99.90
59847;DHT22;45728;48.788;2.302;2024-02-23T03:23:56;5.40;99.90
59847;DHT22;45728;48.788;2.302;2024-02-23T03:26:22;5.40;99.90
59847;DHT22;45728;48.788;2.302;2024-02-23T03:28:49;5.40;99.90
59847;DHT22;45728;48.788;2.302;2024-02-23T03:31:15;5.40;99.90
59847;DHT22;45728;48.788;2.302;2024-02-23T03:33:41;5.50;99.90
59847;DHT22;45728;48.788;2.302;2024-02-23T03:36:07;5.50;99.90
59847;DHT22;45728;48.788;2.302;2024-02-23T03:38:33;5.50;99.90
59847;DHT22;45728;48.788;2.302;2024-02-23T03:41:00;5.60;99.90
59847;DHT22;45728;48.788;2.302;2024-02-23T03:43:26;5.60;99.90
59847;DHT22;45728;48.788;2.302;2024-02-23T03:45:53;5.60;99.90
59847;DHT22;45728;48.788;2.302;2024-02-23T03:48:19;5.60;99.90
59847;DHT22;45728;48.788;2.302;2024-02-23T03:50:46;5.50;99.90
59847;DHT22;45728;48.788;2.302;2024-02-23T03:53:12;5.60;99.90
59847;DHT22;45728;48.788;2.302;2024-02-23T03:55:38;5.50;99.90
59847;DHT22;45728;48.788;2.302;2024-02-23T03:58:04;5.60;99.90
59847;DHT22;45728;48.788;2.302;2024-02-23T04:00:30;5.50;99.90
59847;DHT22;45728;48.788;2.302;2024-02-23T04:02:56;5.60;99.90
59847;DHT22;45728;48.788;2.302;2024-02-23T04:05:22;5.50;99.90
59847;DHT22;45728;48.788;2.302;2024-02-23T04:07:48;5.50;99.90
59847;DHT22;45728;48.788;2.302;2024-02-23T04:10:14;5.50;99.90
59847;DHT22;45728;48.788;2.302;2024-02-23T04:12:42;5.50;99.90
59847;DHT22;45728;48.788;2.302;2024-02-23T04:15:10;5.50;99.90
59847;DHT22;45728;48.788;2.302;2024-02-23T04:17:36;5.50;99.90
59847;DHT22;45728;48.788;2.302;2024-02-23T04:20:07;5.40;99.90
59847;DHT22;45728;48.788;2.302;2024-02-23T04:22:33;5.40;99.90
59847;DHT22;45728;48.788;2.302;2024-02-23T04:24:59;5.50;99.90
59847;DHT22;45728;48.788;2.302;2024-02-23T04:27:25;5.50;99.90
59847;DHT22;45728;48.788;2.302;2024-02-23T04:29:51;5.40;99.90
59847;DHT22;45728;48.788;2.302;2024-02-23T04:32:17;5.50;99.90
59847;DHT22;45728;48.788;2.302;2024-02-23T04:34:43;5.40;99.90
59847;DHT22;45728;48.788;2.302;2024-02-23T04:37:09;5.40;99.90
59847;DHT22;45728;48.788;2.302;2024-02-23T04:39:35;5.40;99.90
59847;DHT22;45728;48.788;2.302;2024-02-23T04:42:04;5.40;99.90
59847;DHT22;45728;48.788;2.302;2024-02-23T04:44:30;5.40;99.90
59847;DHT22;45728;48.788;2.302;2024-02-23T04:46:56;5.50;99.90
59847;DHT22;45728;48.788;2.302;2024-02-23T04:49:22;5.40;99.90
59847;DHT22;45728;48.788;2.302;2024-02-23T04:51:48;5.40;99.90
59847;DHT22;45728;48.788;2.302;2024-02-23T04:54:14;5.40;99.90
59847;DHT22;45728;48.788;2.302;2024-02-23T04:56:40;5.40;99.90
59847;DHT22;45728;48.788;2.302;2024-02-23T04:59:06;5.40;99.90
59847;DHT22;45728;48.788;2.302;2024-02-23T05:01:38;5.40;99.90
59847;DHT22;45728;48.788;2.302;2024-02-23T05:04:04;5.40;99.90
59847;DHT22;45728;48.788;2.302;2024-02-23T05:06:31;5.30;99.90
59847;DHT22;45728;48.788;2.302;2024-02-23T05:08:57;5.40;99.90
59847;DHT22;45728;48.788;2.302;2024-02-23T05:11:23;5.40;99.90
59847;DHT22;45728;48.788;2.302;2024-02-23T05:13:49;5.40;99.90
59847;DHT22;45728;48.788;2.302;2024-02-23T05:16:15;5.40;99.90
59847;DHT22;45728;48.788;2.302;2024-02-23T05:18:41;5.30;99.90
59847;DHT22;45728;48.788;2.302;2024-02-23T05:21:07;5.30;99.90
59847;DHT22;45728;48.788;2.302;2024-02-23T05:23:34;5.30;99.90
59847;DHT22;45728;48.788;2.302;2024-02-23T05:26:00;5.30;99.90
59847;DHT22;45728;48.788;2.302;2024-02-23T05:28:26;5.40;99.90
59847;DHT22;45728;48.788;2.302;2024-02-23T05:30:52;5.30;99.90
59847;DHT22;45728;48.788;2.302;2024-02-23T05:33:18;5.30;99.90
59847;DHT22;45728;48.788;2.302;2024-02-23T05:35:46;5.30;99.90
59847;DHT22;45728;48.788;2.302;2024-02-23T05:38:15;5.30;99.90
59847;DHT22;45728;48.788;2.302;2024-02-23T05:40:41;5.30;99.90
59847;DHT22;45728;48.788;2.302;2024-02-23T05:43:07;5.30;99.90
59847;DHT22;45728;48.788;2.302;2024-02-23T05:45:33;5.30;99.90
59847;DHT22;45728;48.788;2.302;2024-02-23T05:47:59;5.30;99.90
59847;DHT22;45728;48.788;2.302;2024-02-23T05:50:25;5.40;99.90
59847;DHT22;45728;48.788;2.302;2024-02-23T05:52:51;5.30;99.90
59847;DHT22;45728;48.788;2.302;2024-02-23T05:55:19;5.30;99.90
59847;DHT22;45728;48.788;2.302;2024-02-23T05:57:45;5.30;99.90
59847;DHT22;45728;48.788;2.302;2024-02-23T06:00:11;5.30;99.90
59847;DHT22;45728;48.788;2.302;2024-02-23T06:02:38;5.30;99.90
59847;DHT22;45728;48.788;2.302;2024-02-23T06:05:05;5.30;99.90
59847;DHT22;45728;48.788;2.302;2024-02-23T06:07:33;5.30;99.90
59847;DHT22;45728;48.788;2.302;2024-02-23T06:10:00;5.30;99.90
59847;DHT22;45728;48.788;2.302;2024-02-23T06:12:26;5.20;99.90
59847;DHT22;45728;48.788;2.302;2024-02-23T06:14:53;5.20;99.90
59847;DHT22;45728;48.788;2.302;2024-02-23T06:17:21;5.20;99.90
59847;DHT22;45728;48.788;2.302;2024-02-23T06:19:47;5.20;99.90
59847;DHT22;45728;48.788;2.302;2024-02-23T06:22:13;5.20;99.90
59847;DHT22;45728;48.788;2.302;2024-02-23T06:24:40;5.20;99.90
59847;DHT22;45728;48.788;2.302;2024-02-23T06:27:06;5.20;99.90
59847;DHT22;45728;48.788;2.302;2024-02-23T06:29:34;5.20;99.90
59847;DHT22;45728;48.788;2.302;2024-02-23T06:32:00;5.20;99.90
59847;DHT22;45728;48.788;2.302;2024-02-23T06:34:28;5.10;99.90
59847;DHT22;45728;48.788;2.302;2024-02-23T06:36:55;5.10;99.90
59847;DHT22;45728;48.788;2.302;2024-02-23T06:39:22;5.10;99.90
59847;DHT22;45728;48.788;2.302;2024-02-23T06:41:48;5.10;99.90
59847;DHT22;45728;48.788;2.302;2024-02-23T06:44:14;5.10;99.90
59847;DHT22;45728;48.788;2.302;2024-02-23T06:46:40;5.10;99.90
59847;DHT22;45728;48.788;2.302;2024-02-23T06:49:07;5.10;99.90
59847;DHT22;45728;48.788;2.302;2024-02-23T06:51:33;5.00;99.90
59847;DHT22;45728;48.788;2.302;2024-02-23T06:53:59;5.00;99.90
59847;DHT22;45728;48.788;2.302;2024-02-23T06:56:25;5.00;99.90
59847;DHT22;45728;48.788;2.302;2024-02-23T06:58:51;5.10;99.90
59847;DHT22;45728;48.788;2.302;2024-02-23T07:01:20;5.00;99.90
59847;DHT22;45728;48.788;2.302;2024-02-23T07:03:46;5.10;99.90
59847;DHT22;45728;48.788;2.302;2024-02-23T07:06:14;5.00;99.90
59847;DHT22;45728;48.788;2.302;2024-02-23T07:08:44;5.10;99.90
59847;DHT22;45728;48.788;2.302;2024-02-23T07:11:11;5.10;99.90
59847;DHT22;45728;48.788;2.302;2024-02-23T07:13:37;5.10;99.90
59847;DHT22;45728;48.788;2.302;2024-02-23T07:16:03;5.10;99.90
59847;DHT22;45728;48.788;2.302;2024-02-23T07:18:29;5.20;99.90
59847;DHT22;45728;48.788;2.302;2024-02-23T07:20:55;5.20;99.90
59847;DHT22;45728;48.788;2.302;2024-02-23T07:23:21;5.20;99.90
59847;DHT22;45728;48.788;2.302;2024-02-23T07:25:48;5.30;99.90
59847;DHT22;45728;48.788;2.302;2024-02-23T07:28:16;5.30;99.90
59847;DHT22;45728;48.788;2.302;2024-02-23T07:30:45;5.30;99.90
59847;DHT22;45728;48.788;2.302;2024-02-23T07:33:12;5.30;99.90
59847;DHT22;45728;48.788;2.302;2024-02-23T07:35:38;5.30;99.90
59847;DHT22;45728;48.788;2.302;2024-02-23T07:38:04;5.40;99.90
59847;DHT22;45728;48.788;2.302;2024-02-23T07:40:30;5.40;99.90
59847;DHT22;45728;48.788;2.302;2024-02-23T07:42:57;5.40;99.90
59847;DHT22;45728;48.788;2.302;2024-02-23T07:45:23;5.50;99.90
59847;DHT22;45728;48.788;2.302;2024-02-23T07:47:50;5.50;99.90
59847;DHT22;45728;48.788;2.302;2024-02-23T07:50:16;5.50;99.90
59847;DHT22;45728;48.788;2.302;2024-02-23T07:52:44;5.50;99.90
59847;DHT22;45728;48.788;2.302;2024-02-23T07:55:10;5.60;99.90
59847;DHT22;45728;48.788;2.302;2024-02-23T07:57:36;5.60;99.90
59847;DHT22;45728;48.788;2.302;2024-02-23T08:00:04;5.70;99.90
59847;DHT22;45728;48.788;2.302;2024-02-23T08:02:30;5.70;99.90
59847;DHT22;45728;48.788;2.302;2024-02-23T08:04:56;5.70;99.90
59847;DHT22;45728;48.788;2.302;2024-02-23T08:07:22;5.80;99.90
59847;DHT22;45728;48.788;2.302;2024-02-23T08:09:49;5.70;99.90
59847;DHT22;45728;48.788;2.302;2024-02-23T08:12:15;5.80;99.90
59847;DHT22;45728;48.788;2.302;2024-02-23T08:14:41;5.80;99.90
59847;DHT22;45728;48.788;2.302;2024-02-23T08:17:08;5.80;99.90
59847;DHT22;45728;48.788;2.302;2024-02-23T08:19:34;5.90;99.90
59847;DHT22;45728;48.788;2.302;2024-02-23T08:22:00;5.90;99.90
59847;DHT22;45728;48.788;2.302;2024-02-23T08:24:26;5.90;99.90
59847;DHT22;45728;48.788;2.302;2024-02-23T08:26:52;5.90;99.90
59847;DHT22;45728;48.788;2.302;2024-02-23T08:29:18;5.90;99.90
59847;DHT22;45728;48.788;2.302;2024-02-23T08:31:44;6.00;99.90
59847;DHT22;45728;48.788;2.302;2024-02-23T08:34:10;6.00;99.90
59847;DHT22;45728;48.788;2.302;2024-02-23T08:36:36;6.00;99.90
59847;DHT22;45728;48.788;2.302;2024-02-23T08:39:02;6.10;99.90
59847;DHT22;45728;48.788;2.302;2024-02-23T08:41:29;6.10;99.90
59847;DHT22;45728;48.788;2.302;2024-02-23T08:43:55;6.10;99.90
59847;DHT22;45728;48.788;2.302;2024-02-23T08:46:21;6.20;99.90
59847;DHT22;45728;48.788;2.302;2024-02-23T08:48:47;6.20;99.90
59847;DHT22;45728;48.788;2.302;2024-02-23T08:51:13;6.10;99.90
59847;DHT22;45728;48.788;2.302;2024-02-23T08:53:39;6.20;99.90
59847;DHT22;45728;48.788;2.302;2024-02-23T08:56:08;6.30;99.90
59847;DHT22;45728;48.788;2.302;2024-02-23T08:58:35;6.40;99.90
59847;DHT22;45728;48.788;2.302;2024-02-23T09:01:01;6.50;99.90
59847;DHT22;45728;48.788;2.302;2024-02-23T09:03:27;6.50;99.90
59847;DHT22;45728;48.788;2.302;2024-02-23T09:05:53;6.60;99.90
59847;DHT22;45728;48.788;2.302;2024-02-23T09:08:19;6.70;99.90
59847;DHT22;45728;48.788;2.302;2024-02-23T09:10:45;6.70;99.90
59847;DHT22;45728;48.788;2.302;2024-02-23T09:13:11;6.80;99.90
59847;DHT22;45728;48.788;2.302;2024-02-23T09:15:37;6.70;99.90
59847;DHT22;45728;48.788;2.302;2024-02-23T09:18:04;6.80;99.90
59847;DHT22;45728;48.788;2.302;2024-02-23T09:20:30;6.80;99.90
59847;DHT22;45728;48.788;2.302;2024-02-23T09:22:56;6.90;99.90
59847;DHT22;45728;48.788;2.302;2024-02-23T09:25:22;6.80;99.90
59847;DHT22;45728;48.788;2.302;2024-02-23T09:27:48;6.80;99.90
59847;DHT22;45728;48.788;2.302;2024-02-23T09:30:15;6.80;99.90
59847;DHT22;45728;48.788;2.302;2024-02-23T09:32:41;6.80;99.90
59847;DHT22;45728;48.788;2.302;2024-02-23T09:35:07;6.80;99.90
59847;DHT22;45728;48.788;2.302;2024-02-23T09:37:33;6.80;99.90
59847;DHT22;45728;48.788;2.302;2024-02-23T09:39:59;6.80;99.90
59847;DHT22;45728;48.788;2.302;2024-02-23T09:42:28;6.80;99.90
59847;DHT22;45728;48.788;2.302;2024-02-23T09:45:00;6.80;99.90
59847;DHT22;45728;48.788;2.302;2024-02-23T09:47:26;7.00;99.90
59847;DHT22;45728;48.788;2.302;2024-02-23T09:49:53;7.10;99.90
59847;DHT22;45728;48.788;2.302;2024-02-23T09:52:21;7.20;99.90
59847;DHT22;45728;48.788;2.302;2024-02-23T09:54:47;7.10;99.90
59847;DHT22;45728;48.788;2.302;2024-02-23T09:57:15;7.20;99.90
59847;DHT22;45728;48.788;2.302;2024-02-23T09:59:41;7.20;99.90
59847;DHT22;45728;48.788;2.302;2024-02-23T10:02:09;7.30;99.90
59847;DHT22;45728;48.788;2.302;2024-02-23T10:04:36;7.20;99.90
59847;DHT22;45728;48.788;2.302;2024-02-23T10:07:02;7.30;99.90
59847;DHT22;45728;48.788;2.302;2024-02-23T10:09:30;7.20;99.90
59847;DHT22;45728;48.788;2.302;2024-02-23T10:11:56;7.20;99.90
59847;DHT22;45728;48.788;2.302;2024-02-23T10:14:23;7.20;99.90
59847;DHT22;45728;48.788;2.302;2024-02-23T10:16:49;7.30;99.90
59847;DHT22;45728;48.788;2.302;2024-02-23T10:19:19;7.40;99.90
59847;DHT22;45728;48.788;2.302;2024-02-23T10:21:46;7.40;99.90
59847;DHT22;45728;48.788;2.302;2024-02-23T10:24:15;7.50;99.90
59847;DHT22;45728;48.788;2.302;2024-02-23T10:26:42;7.70;99.90
59847;DHT22;45728;48.788;2.302;2024-02-23T10:29:08;7.60;99.90
59847;DHT22;45728;48.788;2.302;2024-02-23T10:31:37;7.70;99.90
59847;DHT22;45728;48.788;2.302;2024-02-23T10:34:07;7.70;99.90
59847;DHT22;45728;48.788;2.302;2024-02-23T10:36:41;7.70;99.90
59847;DHT22;45728;48.788;2.302;2024-02-23T10:39:08;7.80;99.90
59847;DHT22;45728;48.788;2.302;2024-02-23T10:41:39;7.80;99.90
59847;DHT22;45728;48.788;2.302;2024-02-23T10:44:11;7.80;99.90
59847;DHT22;45728;48.788;2.302;2024-02-23T10:46:37;7.70;99.90
59847;DHT22;45728;48.788;2.302;2024-02-23T10:49:03;7.80;99.90
59847;DHT22;45728;48.788;2.302;2024-02-23T10:51:31;7.90;99.90
59847;DHT22;45728;48.788;2.302;2024-02-23T10:53:58;7.90;99.90
59847;DHT22;45728;48.788;2.302;2024-02-23T10:56:24;7.90;99.90
59847;DHT22;45728;48.788;2.302;2024-02-23T10:58:51;7.90;99.90
59847;DHT22;45728;48.788;2.302;2024-02-23T11:01:18;8.10;99.90
59847;DHT22;45728;48.788;2.302;2024-02-23T11:03:46;8.20;99.90
59847;DHT22;45728;48.788;2.302;2024-02-23T11:06:16;8.30;99.90
59847;DHT22;45728;48.788;2.302;2024-02-23T11:08:47;8.40;99.90
59847;DHT22;45728;48.788;2.302;2024-02-23T11:11:17;8.60;99.90
59847;DHT22;45728;48.788;2.302;2024-02-23T11:13:46;8.70;99.90
59847;DHT22;45728;48.788;2.302;2024-02-23T11:16:22;8.60;99.90
59847;DHT22;45728;48.788;2.302;2024-02-23T11:18:49;8.60;99.90
59847;DHT22;45728;48.788;2.302;2024-02-23T11:21:15;8.40;99.90
59847;DHT22;45728;48.788;2.302;2024-02-23T11:23:47;8.20;99.90
59847;DHT22;45728;48.788;2.302;2024-02-23T11:26:17;8.20;99.90
59847;DHT22;45728;48.788;2.302;2024-02-23T11:28:51;8.20;99.90
59847;DHT22;45728;48.788;2.302;2024-02-23T11:31:23;8.20;99.90
59847;DHT22;45728;48.788;2.302;2024-02-23T11:33:51;8.20;99.90
59847;DHT22;45728;48.788;2.302;2024-02-23T11:36:32;8.20;99.90
59847;DHT22;45728;48.788;2.302;2024-02-23T11:39:00;8.30;99.90
59847;DHT22;45728;48.788;2.302;2024-02-23T11:41:27;8.40;99.90
59847;DHT22;45728;48.788;2.302;2024-02-23T11:43:55;8.30;99.90
59847;DHT22;45728;48.788;2.302;2024-02-23T11:46:22;8.30;99.90
59847;DHT22;45728;48.788;2.302;2024-02-23T11:48:49;8.20;99.90
59847;DHT22;45728;48.788;2.302;2024-02-23T11:51:21;8.30;99.90
59847;DHT22;45728;48.788;2.302;2024-02-23T11:53:49;8.40;99.90
59847;DHT22;45728;48.788;2.302;2024-02-23T11:56:15;8.40;99.90
59847;DHT22;45728;48.788;2.302;2024-02-23T11:58:42;8.40;99.90
59847;DHT22;45728;48.788;2.302;2024-02-23T12:01:09;8.50;99.90
59847;DHT22;45728;48.788;2.302;2024-02-23T12:03:35;8.50;99.90
59847;DHT22;45728;48.788;2.302;2024-02-23T12:06:02;8.50;99.90
59847;DHT22;45728;48.788;2.302;2024-02-23T12:08:31;8.60;99.90
59847;DHT22;45728;48.788;2.302;2024-02-23T12:11:07;8.50;99.90
59847;DHT22;45728;48.788;2.302;2024-02-23T12:13:38;8.70;99.90
59847;DHT22;45728;48.788;2.302;2024-02-23T12:16:04;8.70;99.90
59847;DHT22;45728;48.788;2.302;2024-02-23T12:18:34;8.60;99.90
59847;DHT22;45728;48.788;2.302;2024-02-23T12:21:09;8.60;99.90
59847;DHT22;45728;48.788;2.302;2024-02-23T12:23:42;8.60;99.90
59847;DHT22;45728;48.788;2.302;2024-02-23T12:26:10;8.60;99.90
59847;DHT22;45728;48.788;2.302;2024-02-23T12:28:39;8.60;99.90
59847;DHT22;45728;48.788;2.302;2024-02-23T12:31:06;8.70;99.90
59847;DHT22;45728;48.788;2.302;2024-02-23T12:33:35;8.70;99.90
59847;DHT22;45728;48.788;2.302;2024-02-23T12:36:03;8.70;99.90
59847;DHT22;45728;48.788;2.302;2024-02-23T12:38:30;8.80;99.90
59847;DHT22;45728;48.788;2.302;2024-02-23T12:40:57;8.80;99.90
59847;DHT22;45728;48.788;2.302;2024-02-23T12:43:23;8.80;99.90
59847;DHT22;45728;48.788;2.302;2024-02-23T12:45:53;9.00;99.90
59847;DHT22;45728;48.788;2.302;2024-02-23T12:48:20;9.20;99.90
59847;DHT22;45728;48.788;2.302;2024-02-23T12:50:47;9.20;99.90
59847;DHT22;45728;48.788;2.302;2024-02-23T12:55:58;9.20;99.90
59847;DHT22;45728;48.788;2.302;2024-02-23T12:58:24;9.30;99.90
59847;DHT22;45728;48.788;2.302;2024-02-23T13:00:50;9.20;99.90
59847;DHT22;45728;48.788;2.302;2024-02-23T13:03:16;9.30;99.90
59847;DHT22;45728;48.788;2.302;2024-02-23T13:05:42;9.30;99.90
59847;DHT22;45728;48.788;2.302;2024-02-23T13:08:08;9.30;99.90
59847;DHT22;45728;48.788;2.302;2024-02-23T13:10:34;9.60;99.90
59847;DHT22;45728;48.788;2.302;2024-02-23T13:13:01;9.60;99.90
59847;DHT22;45728;48.788;2.302;2024-02-23T13:15:27;9.50;99.90
59847;DHT22;45728;48.788;2.302;2024-02-23T13:17:53;9.30;99.90
59847;DHT22;45728;48.788;2.302;2024-02-23T13:20:19;9.00;99.90
59847;DHT22;45728;48.788;2.302;2024-02-23T13:22:45;9.00;99.90
59847;DHT22;45728;48.788;2.302;2024-02-23T13:25:12;9.00;99.90
59847;DHT22;45728;48.788;2.302;2024-02-23T13:27:38;9.10;99.90
59847;DHT22;45728;48.788;2.302;2024-02-23T13:30:04;9.40;99.90
59847;DHT22;45728;48.788;2.302;2024-02-23T13:32:30;9.40;99.90
59847;DHT22;45728;48.788;2.302;2024-02-23T13:34:57;9.50;99.90
59847;DHT22;45728;48.788;2.302;2024-02-23T13:37:23;9.60;99.90
59847;DHT22;45728;48.788;2.302;2024-02-23T13:39:49;9.60;99.90
59847;DHT22;45728;48.788;2.302;2024-02-23T13:42:15;9.70;99.90
59847;DHT22;45728;48.788;2.302;2024-02-23T13:44:41;9.60;99.90
59847;DHT22;45728;48.788;2.302;2024-02-23T13:47:07;9.50;99.90
59847;DHT22;45728;48.788;2.302;2024-02-23T13:49:33;9.40;99.90
59847;DHT22;45728;48.788;2.302;2024-02-23T13:51:59;9.40;99.90
59847;DHT22;45728;48.788;2.302;2024-02-23T13:54:26;9.40;99.90
59847;DHT22;45728;48.788;2.302;2024-02-23T13:56:52;9.10;99.90
59847;DHT22;45728;48.788;2.302;2024-02-23T13:59:18;9.20;99.90
59847;DHT22;45728;48.788;2.302;2024-02-23T14:01:44;9.10;99.90
59847;DHT22;45728;48.788;2.302;2024-02-23T14:04:11;9.00;99.90
59847;DHT22;45728;48.788;2.302;2024-02-23T14:06:37;9.00;99.90
59847;DHT22;45728;48.788;2.302;2024-02-23T14:09:03;9.00;99.90
59847;DHT22;45728;48.788;2.302;2024-02-23T14:11:30;9.00;99.90
59847;DHT22;45728;48.788;2.302;2024-02-23T14:13:57;9.00;99.90
59847;DHT22;45728;48.788;2.302;2024-02-23T14:16:23;9.00;99.90
59847;DHT22;45728;48.788;2.302;2024-02-23T14:18:49;9.00;99.90
59847;DHT22;45728;48.788;2.302;2024-02-23T14:21:16;8.90;99.90
59847;DHT22;45728;48.788;2.302;2024-02-23T14:23:43;8.70;99.90
59847;DHT22;45728;48.788;2.302;2024-02-23T14:26:10;8.70;99.90
59847;DHT22;45728;48.788;2.302;2024-02-23T14:28:36;8.50;99.90
59847;DHT22;45728;48.788;2.302;2024-02-23T14:31:02;8.60;99.90
59847;DHT22;45728;48.788;2.302;2024-02-23T14:33:28;8.70;99.90
59847;DHT22;45728;48.788;2.302;2024-02-23T14:35:54;8.70;99.90
59847;DHT22;45728;48.788;2.302;2024-02-23T14:38:22;8.60;99.90
59847;DHT22;45728;48.788;2.302;2024-02-23T14:40:48;8.50;99.90
59847;DHT22;45728;48.788;2.302;2024-02-23T14:43:14;8.40;99.90
59847;DHT22;45728;48.788;2.302;2024-02-23T14:45:40;8.40;99.90
59847;DHT22;45728;48.788;2.302;2024-02-23T14:48:07;8.40;99.90
59847;DHT22;45728;48.788;2.302;2024-02-23T14:50:33;8.40;99.90
59847;DHT22;45728;48.788;2.302;2024-02-23T14:52:59;8.40;99.90
59847;DHT22;45728;48.788;2.302;2024-02-23T14:55:26;8.40;99.90
59847;DHT22;45728;48.788;2.302;2024-02-23T14:57:52;8.30;99.90
59847;DHT22;45728;48.788;2.302;2024-02-23T15:00:18;8.40;99.90
59847;DHT22;45728;48.788;2.302;2024-02-23T15:02:44;8.30;99.90
59847;DHT22;45728;48.788;2.302;2024-02-23T15:05:10;8.40;99.90
59847;DHT22;45728;48.788;2.302;2024-02-23T15:07:37;8.20;99.90
59847;DHT22;45728;48.788;2.302;2024-02-23T15:10:03;8.20;99.90
59847;DHT22;45728;48.788;2.302;2024-02-23T15:12:36;8.50;99.90
59847;DHT22;45728;48.788;2.302;2024-02-23T15:15:03;8.60;99.90
59847;DHT22;45728;48.788;2.302;2024-02-23T15:17:30;8.80;99.90
59847;DHT22;45728;48.788;2.302;2024-02-23T15:19:56;8.90;99.90
59847;DHT22;45728;48.788;2.302;2024-02-23T15:22:22;9.00;99.90
59847;DHT22;45728;48.788;2.302;2024-02-23T15:24:48;9.00;99.90
59847;DHT22;45728;48.788;2.302;2024-02-23T15:27:16;8.80;99.90
59847;DHT22;45728;48.788;2.302;2024-02-23T15:29:43;8.70;99.90
59847;DHT22;45728;48.788;2.302;2024-02-23T15:32:09;8.70;99.90
59847;DHT22;45728;48.788;2.302;2024-02-23T15:34:36;8.60;99.90
59847;DHT22;45728;48.788;2.302;2024-02-23T15:37:03;8.70;99.90
59847;DHT22;45728;48.788;2.302;2024-02-23T15:39:29;8.70;99.90
59847;DHT22;45728;48.788;2.302;2024-02-23T15:41:55;8.70;99.90
59847;DHT22;45728;48.788;2.302;2024-02-23T15:44:21;8.70;99.90